createdAt,value
2022-12-18T00:00:48.126Z,363.40
2022-12-18T00:01:48.175Z,372.20
2022-12-18T00:02:49.054Z,225.90
2022-12-18T00:03:48.198Z,157.10
2022-12-18T00:04:48.106Z,226.30
2022-12-18T00:05:47.988Z,80.20
2022-12-18T00:06:49.016Z,107.20
2022-12-18T00:07:48.092Z,251.40
2022-12-18T00:08:47.964Z,249.10
2022-12-18T00:09:47.931Z,112.40
2022-12-18T00:10:48.696Z,484.90
2022-12-18T00:11:48.960Z,216.00
2022-12-18T00:12:48.017Z,123.10
2022-12-18T00:13:47.948Z,93.10
2022-12-18T00:14:47.975Z,138.00
2022-12-18T00:15:47.895Z,96.30
2022-12-18T00:16:47.917Z,90.20
2022-12-18T00:17:47.883Z,102.70
2022-12-18T00:18:47.886Z,117.30
2022-12-18T00:19:47.881Z,95.70
2022-12-18T00:20:47.883Z,90.70
2022-12-18T00:21:47.863Z,158.90
2022-12-18T00:22:47.870Z,92.80
2022-12-18T00:23:48.030Z,183.30
2022-12-18T00:24:47.851Z,169.80
2022-12-18T00:25:47.872Z,163.10
2022-12-18T00:26:47.848Z,91.70
2022-12-18T00:27:47.781Z,130.40
2022-12-18T00:28:47.794Z,95.70
2022-12-18T00:29:47.801Z,96.20
2022-12-18T00:30:47.799Z,96.00
2022-12-18T00:31:47.837Z,83.60
2022-12-18T00:32:47.813Z,81.30
2022-12-18T00:33:50.030Z,104.80
2022-12-18T00:34:48.821Z,117.90
2022-12-18T00:35:47.801Z,90.50
2022-12-18T00:36:47.696Z,217.40
2022-12-18T00:37:47.776Z,159.90
2022-12-18T00:38:47.705Z,118.10
2022-12-18T00:39:47.662Z,108.00
2022-12-18T00:40:48.360Z,251.90
2022-12-18T00:41:47.817Z,403.80
2022-12-18T00:42:47.662Z,250.80
2022-12-18T00:43:47.817Z,239.60
2022-12-18T00:44:47.606Z,347.50
2022-12-18T00:45:47.667Z,238.10
2022-12-18T00:46:47.749Z,347.20
2022-12-18T00:47:47.677Z,201.50
2022-12-18T00:48:47.643Z,148.50
2022-12-18T00:49:47.595Z,353.70
2022-12-18T00:50:47.560Z,176.30
2022-12-18T00:51:47.749Z,82.90
2022-12-18T00:52:47.585Z,92.40
2022-12-18T00:53:47.564Z,75.50
2022-12-18T00:54:47.559Z,99.60
2022-12-18T00:55:47.543Z,78.70
2022-12-18T00:56:49.629Z,78.90
2022-12-18T00:57:48.558Z,73.10
2022-12-18T00:58:47.593Z,71.80
2022-12-18T00:59:47.647Z,78.60
2022-12-18T01:00:47.580Z,72.90
2022-12-18T01:01:47.862Z,193.20
2022-12-18T01:02:47.637Z,88.40
2022-12-18T01:03:47.490Z,86.00
2022-12-18T01:04:47.551Z,252.00
2022-12-18T01:05:47.518Z,107.00
2022-12-18T01:06:47.451Z,113.70
2022-12-18T01:07:47.418Z,88.60
2022-12-18T01:08:47.430Z,177.40
2022-12-18T01:09:47.507Z,159.80
2022-12-18T01:10:47.426Z,311.90
2022-12-18T01:11:47.357Z,182.80
2022-12-18T01:12:47.457Z,119.10
2022-12-18T01:13:47.399Z,247.70
2022-12-18T01:14:47.443Z,156.70
2022-12-18T01:15:47.344Z,223.90
2022-12-18T01:16:47.440Z,150.70
2022-12-18T01:17:47.316Z,125.60
2022-12-18T01:18:47.529Z,124.10
2022-12-18T01:19:47.408Z,163.30
2022-12-18T01:20:47.319Z,144.80
2022-12-18T01:21:47.463Z,100.30
2022-12-18T01:22:47.287Z,128.60
2022-12-18T01:23:47.328Z,79.80
2022-12-18T01:24:47.299Z,76.90
2022-12-18T01:25:47.252Z,98.30
2022-12-18T01:26:47.220Z,120.70
2022-12-18T01:27:47.313Z,80.70
2022-12-18T01:28:47.204Z,78.20
2022-12-18T01:29:47.233Z,80.00
2022-12-18T01:30:47.316Z,89.00
2022-12-18T01:31:47.314Z,125.90
2022-12-18T01:32:47.244Z,93.80
2022-12-18T01:33:47.237Z,129.30
2022-12-18T01:34:47.165Z,81.30
2022-12-18T01:35:47.181Z,90.70
2022-12-18T01:36:47.165Z,78.80
2022-12-18T01:37:47.169Z,97.30
2022-12-18T01:38:47.113Z,85.00
2022-12-18T01:39:47.229Z,80.70
2022-12-18T01:40:47.114Z,77.20
2022-12-18T01:41:47.721Z,83.30
2022-12-18T01:42:47.274Z,93.40
2022-12-18T01:43:47.084Z,79.40
2022-12-18T01:44:47.073Z,78.50
2022-12-18T01:45:47.089Z,77.90
2022-12-18T01:46:47.061Z,121.50
2022-12-18T01:47:47.072Z,75.40
2022-12-18T01:48:47.053Z,76.50
2022-12-18T01:49:47.110Z,84.30
2022-12-18T01:50:47.023Z,83.20
2022-12-18T01:51:47.066Z,80.70
2022-12-18T01:52:46.991Z,75.80
2022-12-18T01:53:46.982Z,81.60
2022-12-18T01:54:46.971Z,70.20
2022-12-18T01:55:46.983Z,82.60
2022-12-18T01:56:46.929Z,87.80
2022-12-18T01:57:47.073Z,80.00
2022-12-18T01:58:46.953Z,79.90
2022-12-18T01:59:46.937Z,87.30
2022-12-18T02:00:47.034Z,75.70
2022-12-18T02:01:47.191Z,76.00
2022-12-18T02:02:46.968Z,78.50
2022-12-18T02:03:47.124Z,74.30
2022-12-18T02:04:49.577Z,73.20
2022-12-18T02:05:47.912Z,74.80
2022-12-18T02:06:46.852Z,75.50
2022-12-18T02:07:46.844Z,76.80
2022-12-18T02:08:46.909Z,70.80
2022-12-18T02:09:46.985Z,70.10
2022-12-18T02:10:46.853Z,73.00
2022-12-18T02:11:46.861Z,67.60
2022-12-18T02:12:46.912Z,63.90
2022-12-18T02:13:46.802Z,68.90
2022-12-18T02:14:46.835Z,67.50
2022-12-18T02:15:47.411Z,76.10
2022-12-18T02:16:46.902Z,75.40
2022-12-18T02:17:46.822Z,202.10
2022-12-18T02:18:46.784Z,92.40
2022-12-18T02:19:46.723Z,68.40
2022-12-18T02:20:46.786Z,68.10
2022-12-18T02:21:46.823Z,82.10
2022-12-18T02:22:46.747Z,71.80
2022-12-18T02:23:46.838Z,92.60
2022-12-18T02:24:46.702Z,94.20
2022-12-18T02:25:46.687Z,77.20
2022-12-18T02:26:46.674Z,64.60
2022-12-18T02:27:46.721Z,92.30
2022-12-18T02:28:46.804Z,72.70
2022-12-18T02:29:46.716Z,103.10
2022-12-18T02:30:46.689Z,105.40
2022-12-18T02:31:46.715Z,70.30
2022-12-18T02:32:46.627Z,106.40
2022-12-18T02:33:46.764Z,88.90
2022-12-18T02:34:46.599Z,85.00
2022-12-18T02:35:46.643Z,78.30
2022-12-18T02:36:47.411Z,70.30
2022-12-18T02:37:46.566Z,71.20
2022-12-18T02:38:46.540Z,68.60
2022-12-18T02:39:47.555Z,169.80
2022-12-18T02:40:46.580Z,70.80
2022-12-18T02:41:46.527Z,83.50
2022-12-18T02:42:46.537Z,74.60
2022-12-18T02:43:46.622Z,145.80
2022-12-18T02:44:46.601Z,105.90
2022-12-18T02:45:46.815Z,68.20
2022-12-18T02:46:46.548Z,71.50
2022-12-18T02:47:46.477Z,61.70
2022-12-18T02:48:46.516Z,70.30
2022-12-18T02:49:46.439Z,73.70
2022-12-18T02:50:46.531Z,70.00
2022-12-18T02:51:46.592Z,66.20
2022-12-18T02:52:46.408Z,65.40
2022-12-18T02:53:46.455Z,66.10
2022-12-18T02:54:46.464Z,66.30
2022-12-18T02:55:46.500Z,68.40
2022-12-18T02:56:46.401Z,63.30
2022-12-18T02:57:46.374Z,89.30
2022-12-18T02:58:46.479Z,74.40
2022-12-18T02:59:47.196Z,72.20
2022-12-18T03:00:46.445Z,58.60
2022-12-18T03:01:47.462Z,60.70
2022-12-18T03:02:46.539Z,68.20
2022-12-18T03:03:46.328Z,71.20
2022-12-18T03:04:46.304Z,66.20
2022-12-18T03:05:46.311Z,93.40
2022-12-18T03:06:46.277Z,81.60
2022-12-18T03:07:46.294Z,67.90
2022-12-18T03:08:46.304Z,65.40
2022-12-18T03:09:46.256Z,61.10
2022-12-18T03:10:46.285Z,64.40
2022-12-18T03:11:46.241Z,75.00
2022-12-18T03:12:46.248Z,62.90
2022-12-18T03:13:46.374Z,61.50
2022-12-18T03:14:46.205Z,60.00
2022-12-18T03:15:46.213Z,58.70
2022-12-18T03:16:46.428Z,60.60
2022-12-18T03:17:46.189Z,58.30
2022-12-18T03:18:46.192Z,60.00
2022-12-18T03:19:46.238Z,62.70
2022-12-18T03:20:46.154Z,56.90
2022-12-18T03:21:46.151Z,60.30
2022-12-18T03:22:46.840Z,66.70
2022-12-18T03:23:46.112Z,67.10
2022-12-18T03:24:46.148Z,57.50
2022-12-18T03:25:47.134Z,65.50
2022-12-18T03:26:46.076Z,64.60
2022-12-18T03:27:46.155Z,62.70
2022-12-18T03:28:46.064Z,62.40
2022-12-18T03:29:46.093Z,63.00
2022-12-18T03:30:46.142Z,61.50
2022-12-18T03:31:46.144Z,62.90
2022-12-18T03:32:46.171Z,61.60
2022-12-18T03:33:46.127Z,65.90
2022-12-18T03:34:46.059Z,65.90
2022-12-18T03:35:46.083Z,61.30
2022-12-18T03:36:46.068Z,61.40
2022-12-18T03:37:46.174Z,70.40
2022-12-18T03:38:45.986Z,62.50
2022-12-18T03:39:45.995Z,61.60
2022-12-18T03:40:46.017Z,71.50
2022-12-18T03:41:46.026Z,72.30
2022-12-18T03:42:46.022Z,64.80
2022-12-18T03:43:45.967Z,66.10
2022-12-18T03:44:46.040Z,75.00
2022-12-18T03:45:45.958Z,67.90
2022-12-18T03:46:45.934Z,71.40
2022-12-18T03:47:46.098Z,65.00
2022-12-18T03:48:46.240Z,71.00
2022-12-18T03:49:45.911Z,73.40
2022-12-18T03:50:47.167Z,62.80
2022-12-18T03:51:45.894Z,76.00
2022-12-18T03:52:45.938Z,71.00
2022-12-18T03:53:45.870Z,70.40
2022-12-18T03:54:45.851Z,68.80
2022-12-18T03:55:45.838Z,65.10
2022-12-18T03:56:45.859Z,67.40
2022-12-18T03:57:45.843Z,64.60
2022-12-18T03:58:45.855Z,59.70
2022-12-18T03:59:45.807Z,63.40
2022-12-18T04:00:45.795Z,65.00
2022-12-18T04:01:45.909Z,61.20
2022-12-18T04:02:45.973Z,59.30
2022-12-18T04:03:46.035Z,63.90
2022-12-18T04:04:45.825Z,60.80
2022-12-18T04:05:45.739Z,60.10
2022-12-18T04:06:45.816Z,61.20
2022-12-18T04:07:45.716Z,63.20
2022-12-18T04:08:45.775Z,64.10
2022-12-18T04:09:45.720Z,60.70
2022-12-18T04:10:45.683Z,61.20
2022-12-18T04:11:45.725Z,66.30
2022-12-18T04:12:45.683Z,64.10
2022-12-18T04:13:45.696Z,61.40
2022-12-18T04:14:45.680Z,68.90
2022-12-18T04:15:45.665Z,64.70
2022-12-18T04:16:45.664Z,68.70
2022-12-18T04:17:45.700Z,63.00
2022-12-18T04:18:45.641Z,67.10
2022-12-18T04:19:45.716Z,65.70
2022-12-18T04:20:45.676Z,63.10
2022-12-18T04:21:45.592Z,64.70
2022-12-18T04:22:45.630Z,59.20
2022-12-18T04:23:45.596Z,59.70
2022-12-18T04:24:45.605Z,65.60
2022-12-18T04:25:45.597Z,56.70
2022-12-18T04:26:45.552Z,65.20
2022-12-18T04:27:45.608Z,57.70
2022-12-18T04:28:45.584Z,60.50
2022-12-18T04:29:45.589Z,61.00
2022-12-18T04:30:45.569Z,65.60
2022-12-18T04:31:45.595Z,62.20
2022-12-18T04:32:50.528Z,63.10
2022-12-18T04:33:47.484Z,60.30
2022-12-18T04:34:46.501Z,61.20
2022-12-18T04:35:45.483Z,61.10
2022-12-18T04:36:45.631Z,63.40
2022-12-18T04:37:45.431Z,58.60
2022-12-18T04:38:45.437Z,57.90
2022-12-18T04:39:45.444Z,60.90
2022-12-18T04:40:45.453Z,58.70
2022-12-18T04:41:45.417Z,63.30
2022-12-18T04:42:45.493Z,60.40
2022-12-18T04:43:45.400Z,62.80
2022-12-18T04:44:45.401Z,61.00
2022-12-18T04:45:45.395Z,60.70
2022-12-18T04:46:45.491Z,60.50
2022-12-18T04:47:45.508Z,59.30
2022-12-18T04:48:45.345Z,61.00
2022-12-18T04:49:45.337Z,60.10
2022-12-18T04:50:45.382Z,66.20
2022-12-18T04:51:45.325Z,65.50
2022-12-18T04:52:45.456Z,59.30
2022-12-18T04:53:45.284Z,56.80
2022-12-18T04:54:45.300Z,60.70
2022-12-18T04:55:45.293Z,58.10
2022-12-18T04:56:45.253Z,58.60
2022-12-18T04:57:45.226Z,58.60
2022-12-18T04:58:45.215Z,57.10
2022-12-18T04:59:45.194Z,58.70
2022-12-18T05:00:45.219Z,58.30
2022-12-18T05:01:45.291Z,58.00
2022-12-18T05:02:45.394Z,56.00
2022-12-18T05:03:45.705Z,60.10
2022-12-18T05:04:45.154Z,62.20
2022-12-18T05:05:45.212Z,60.80
2022-12-18T05:06:45.142Z,63.10
2022-12-18T05:07:45.102Z,59.50
2022-12-18T05:08:45.192Z,63.50
2022-12-18T05:09:45.106Z,61.70
2022-12-18T05:10:45.070Z,54.90
2022-12-18T05:11:45.135Z,60.40
2022-12-18T05:12:45.082Z,60.20
2022-12-18T05:13:45.050Z,57.50
2022-12-18T05:14:45.827Z,56.80
2022-12-18T05:15:45.063Z,63.00
2022-12-18T05:16:45.018Z,62.30
2022-12-18T05:17:45.026Z,56.90
2022-12-18T05:18:45.006Z,58.20
2022-12-18T05:19:45.011Z,57.90
2022-12-18T05:20:44.994Z,58.00
2022-12-18T05:21:44.976Z,59.10
2022-12-18T05:22:44.991Z,57.30
2022-12-18T05:23:44.975Z,54.80
2022-12-18T05:24:45.052Z,57.40
2022-12-18T05:25:44.930Z,58.50
2022-12-18T05:26:44.932Z,58.70
2022-12-18T05:27:44.946Z,56.50
2022-12-18T05:28:44.898Z,58.90
2022-12-18T05:29:44.896Z,58.10
2022-12-18T05:30:44.939Z,59.90
2022-12-18T05:31:45.906Z,61.40
2022-12-18T05:32:44.868Z,61.20
2022-12-18T05:33:44.924Z,65.00
2022-12-18T05:34:44.838Z,66.90
2022-12-18T05:35:44.868Z,63.10
2022-12-18T05:36:44.835Z,68.60
2022-12-18T05:37:44.832Z,69.10
2022-12-18T05:38:44.819Z,65.70
2022-12-18T05:39:44.839Z,63.80
2022-12-18T05:40:44.919Z,67.50
2022-12-18T05:41:44.779Z,65.00
2022-12-18T05:42:44.807Z,60.80
2022-12-18T05:43:44.798Z,66.20
2022-12-18T05:44:44.744Z,65.40
2022-12-18T05:45:44.788Z,63.60
2022-12-18T05:46:44.793Z,69.30
2022-12-18T05:47:45.576Z,59.10
2022-12-18T05:48:44.926Z,61.40
2022-12-18T05:49:44.704Z,61.80
2022-12-18T05:50:44.735Z,64.40
2022-12-18T05:51:44.683Z,66.40
2022-12-18T05:52:44.671Z,59.50
2022-12-18T05:53:44.694Z,67.20
2022-12-18T05:54:44.663Z,65.00
2022-12-18T05:55:44.640Z,56.20
2022-12-18T05:56:48.587Z,64.60
2022-12-18T05:57:45.616Z,60.20
2022-12-18T05:58:45.125Z,60.50
2022-12-18T05:59:44.651Z,61.00
2022-12-18T06:00:44.591Z,61.30
2022-12-18T06:01:44.688Z,61.60
2022-12-18T06:02:44.724Z,55.90
2022-12-18T06:03:45.083Z,58.50
2022-12-18T06:04:44.563Z,59.50
2022-12-18T06:05:44.570Z,61.50
2022-12-18T06:06:44.540Z,63.00
2022-12-18T06:07:45.568Z,59.80
2022-12-18T06:08:46.684Z,60.80
2022-12-18T06:09:45.608Z,59.30
2022-12-18T06:10:44.511Z,63.10
2022-12-18T06:11:44.540Z,60.80
2022-12-18T06:12:44.602Z,63.60
2022-12-18T06:13:44.519Z,60.60
2022-12-18T06:14:44.492Z,60.70
2022-12-18T06:15:44.452Z,62.50
2022-12-18T06:16:44.503Z,61.50
2022-12-18T06:17:44.444Z,66.00
2022-12-18T06:18:44.444Z,63.10
2022-12-18T06:19:44.454Z,61.10
2022-12-18T06:20:44.452Z,64.60
2022-12-18T06:21:44.398Z,60.60
2022-12-18T06:22:44.408Z,60.30
2022-12-18T06:23:44.390Z,63.40
2022-12-18T06:24:44.344Z,64.20
2022-12-18T06:25:45.434Z,60.50
2022-12-18T06:26:45.301Z,58.30
2022-12-18T06:27:44.401Z,59.30
2022-12-18T06:28:44.428Z,57.90
2022-12-18T06:29:44.375Z,60.20
2022-12-18T06:30:44.334Z,59.00
2022-12-18T06:31:44.390Z,63.40
2022-12-18T06:32:44.285Z,61.70
2022-12-18T06:33:44.314Z,62.70
2022-12-18T06:34:44.301Z,57.40
2022-12-18T06:35:44.345Z,58.60
2022-12-18T06:36:44.285Z,60.40
2022-12-18T06:37:44.322Z,61.20
2022-12-18T06:38:44.280Z,60.00
2022-12-18T06:39:44.238Z,64.60
2022-12-18T06:40:44.229Z,59.60
2022-12-18T06:41:44.205Z,62.40
2022-12-18T06:42:44.209Z,64.20
2022-12-18T06:43:44.172Z,60.70
2022-12-18T06:44:44.279Z,62.10
2022-12-18T06:45:44.221Z,58.80
2022-12-18T06:46:44.164Z,60.50
2022-12-18T06:47:44.189Z,59.20
2022-12-18T06:48:44.144Z,62.70
2022-12-18T06:49:44.112Z,61.80
2022-12-18T06:50:44.127Z,60.30
2022-12-18T06:51:44.108Z,57.30
2022-12-18T06:52:44.078Z,60.50
2022-12-18T06:53:44.098Z,62.30
2022-12-18T06:54:44.062Z,58.70
2022-12-18T06:55:44.050Z,70.70
2022-12-18T06:56:44.089Z,68.30
2022-12-18T06:57:44.075Z,62.40
2022-12-18T06:58:44.063Z,62.80
2022-12-18T06:59:44.111Z,62.60
2022-12-18T07:00:44.198Z,55.90
2022-12-18T07:01:44.213Z,59.10
2022-12-18T07:02:44.087Z,57.50
2022-12-18T07:03:44.581Z,60.70
2022-12-18T07:04:44.019Z,61.00
2022-12-18T07:05:43.947Z,57.50
2022-12-18T07:06:43.949Z,60.00
2022-12-18T07:07:43.947Z,59.60
2022-12-18T07:08:43.943Z,58.60
2022-12-18T07:09:43.919Z,57.80
2022-12-18T07:10:47.478Z,58.90
2022-12-18T07:11:44.887Z,59.80
2022-12-18T07:12:43.910Z,61.60
2022-12-18T07:13:44.022Z,57.60
2022-12-18T07:14:43.912Z,57.00
2022-12-18T07:15:43.871Z,62.20
2022-12-18T07:16:43.985Z,60.50
2022-12-18T07:17:43.882Z,56.80
2022-12-18T07:18:43.816Z,58.90
2022-12-18T07:19:44.829Z,61.10
2022-12-18T07:20:44.563Z,56.00
2022-12-18T07:21:43.820Z,58.40
2022-12-18T07:22:43.779Z,57.90
2022-12-18T07:23:43.855Z,60.50
2022-12-18T07:24:43.862Z,57.10
2022-12-18T07:25:43.763Z,57.20
2022-12-18T07:26:43.952Z,51.80
2022-12-18T07:27:43.779Z,55.10
2022-12-18T07:28:43.764Z,57.50
2022-12-18T07:29:43.748Z,66.50
2022-12-18T07:30:43.751Z,66.60
2022-12-18T07:31:43.796Z,82.20
2022-12-18T07:32:43.796Z,67.70
2022-12-18T07:33:43.714Z,68.00
2022-12-18T07:34:43.686Z,61.70
2022-12-18T07:35:43.701Z,57.70
2022-12-18T07:36:43.676Z,59.10
2022-12-18T07:37:43.680Z,64.70
2022-12-18T07:38:43.637Z,59.30
2022-12-18T07:39:44.536Z,58.40
2022-12-18T07:40:43.631Z,54.90
2022-12-18T07:41:46.715Z,59.60
2022-12-18T07:42:44.666Z,59.80
2022-12-18T07:43:44.119Z,60.70
2022-12-18T07:44:44.192Z,56.60
2022-12-18T07:45:43.633Z,60.10
2022-12-18T07:46:43.629Z,59.20
2022-12-18T07:47:43.542Z,63.20
2022-12-18T07:48:44.234Z,70.90
2022-12-18T07:49:44.532Z,62.40
2022-12-18T07:50:43.529Z,67.80
2022-12-18T07:51:43.601Z,62.60
2022-12-18T07:52:44.137Z,60.80
2022-12-18T07:53:43.694Z,63.00
2022-12-18T07:54:43.493Z,57.70
2022-12-18T07:56:17.711Z,57.70
2022-12-18T07:56:45.531Z,58.80
2022-12-18T07:57:52.667Z,59.10
2022-12-18T07:58:45.462Z,59.60
2022-12-18T07:59:43.445Z,55.80
2022-12-18T08:00:43.438Z,56.90
2022-12-18T08:01:43.667Z,57.90
2022-12-18T08:02:43.501Z,54.60
2022-12-18T08:03:43.473Z,54.60
2022-12-18T08:04:43.481Z,53.90
2022-12-18T08:05:43.392Z,54.60
2022-12-18T08:06:47.610Z,55.50
2022-12-18T08:07:44.381Z,54.10
2022-12-18T08:08:44.095Z,56.60
2022-12-18T08:09:43.363Z,56.80
2022-12-18T08:10:43.326Z,56.10
2022-12-18T08:11:43.349Z,57.80
2022-12-18T08:12:43.331Z,58.60
2022-12-18T08:13:43.493Z,54.40
2022-12-18T08:14:43.282Z,52.20
2022-12-18T08:15:43.283Z,55.20
2022-12-18T08:16:43.410Z,53.00
2022-12-18T08:17:44.263Z,60.00
2022-12-18T08:18:43.285Z,56.30
2022-12-18T08:19:43.266Z,54.70
2022-12-18T08:20:43.345Z,56.20
2022-12-18T08:21:43.367Z,59.30
2022-12-18T08:22:43.241Z,58.30
2022-12-18T08:23:43.747Z,56.00
2022-12-18T08:24:43.224Z,59.40
2022-12-18T08:25:43.168Z,59.00
2022-12-18T08:26:51.819Z,56.30
2022-12-18T08:27:44.217Z,59.00
2022-12-18T08:28:43.231Z,57.30
2022-12-18T08:29:43.160Z,65.10
2022-12-18T08:30:43.364Z,55.90
2022-12-18T08:31:43.169Z,55.70
2022-12-18T08:32:44.081Z,56.80
2022-12-18T08:33:43.599Z,54.30
2022-12-18T08:34:43.129Z,56.30
2022-12-18T08:35:46.019Z,62.00
2022-12-18T08:36:44.183Z,55.50
2022-12-18T08:37:43.088Z,62.20
2022-12-18T08:38:43.327Z,58.60
2022-12-18T08:39:43.330Z,58.40
2022-12-18T08:40:43.096Z,58.70
2022-12-18T08:41:43.136Z,61.50
2022-12-18T08:42:43.021Z,53.50
2022-12-18T08:43:43.328Z,54.30
2022-12-18T08:44:43.049Z,53.00
2022-12-18T08:45:43.051Z,56.10
2022-12-18T08:46:43.101Z,56.80
2022-12-18T08:47:43.009Z,57.40
2022-12-18T08:48:43.004Z,54.10
2022-12-18T08:49:43.002Z,57.80
2022-12-18T08:50:43.123Z,54.10
2022-12-18T08:51:42.995Z,57.60
2022-12-18T08:52:43.018Z,62.70
2022-12-18T08:53:43.264Z,60.30
2022-12-18T08:54:42.921Z,57.00
2022-12-18T08:55:48.556Z,54.80
2022-12-18T08:56:44.977Z,59.80
2022-12-18T08:57:42.910Z,59.20
2022-12-18T08:58:43.010Z,65.30
2022-12-18T08:59:42.879Z,58.50
2022-12-18T09:00:43.663Z,58.80
2022-12-18T09:01:42.991Z,58.70
2022-12-18T09:02:43.044Z,61.90
2022-12-18T09:03:44.345Z,58.30
2022-12-18T09:04:42.836Z,60.00
2022-12-18T09:05:42.815Z,58.40
2022-12-18T09:06:42.942Z,57.50
2022-12-18T09:07:42.806Z,60.00
2022-12-18T09:08:48.763Z,58.90
2022-12-18T09:09:43.938Z,54.50
2022-12-18T09:10:43.551Z,55.00
2022-12-18T09:11:43.772Z,58.90
2022-12-18T09:12:43.566Z,59.50
2022-12-18T09:13:43.054Z,53.90
2022-12-18T09:14:42.760Z,54.80
2022-12-18T09:15:42.768Z,48.70
2022-12-18T09:16:42.771Z,54.10
2022-12-18T09:17:43.707Z,55.10
2022-12-18T09:18:43.148Z,85.80
2022-12-18T09:19:42.684Z,74.60
2022-12-18T09:20:42.716Z,61.80
2022-12-18T09:21:47.793Z,55.20
2022-12-18T09:22:44.879Z,52.50
2022-12-18T09:23:42.648Z,55.90
2022-12-18T09:24:42.623Z,58.80
2022-12-18T09:25:42.725Z,59.20
2022-12-18T09:26:43.521Z,60.80
2022-12-18T09:27:42.593Z,59.80
2022-12-18T09:28:42.888Z,57.90
2022-12-18T09:29:42.608Z,52.80
2022-12-18T09:30:43.610Z,53.00
2022-12-18T09:31:42.579Z,51.90
2022-12-18T09:32:42.553Z,56.50
2022-12-18T09:33:42.543Z,56.00
2022-12-18T09:34:42.522Z,54.40
2022-12-18T09:35:42.492Z,52.40
2022-12-18T09:36:42.543Z,52.90
2022-12-18T09:37:42.519Z,54.80
2022-12-18T09:38:42.850Z,55.40
2022-12-18T09:39:42.466Z,58.80
2022-12-18T09:40:42.461Z,53.20
2022-12-18T09:41:43.143Z,55.30
2022-12-18T09:42:42.549Z,52.30
2022-12-18T09:43:42.429Z,54.00
2022-12-18T09:44:45.363Z,56.00
2022-12-18T09:45:43.421Z,69.90
2022-12-18T09:46:43.304Z,55.00
2022-12-18T09:47:42.372Z,51.50
2022-12-18T09:48:42.927Z,53.90
2022-12-18T09:49:43.202Z,53.10
2022-12-18T09:50:42.401Z,58.40
2022-12-18T09:51:42.357Z,53.40
2022-12-18T09:52:42.349Z,58.00
2022-12-18T09:53:42.401Z,53.70
2022-12-18T09:54:42.456Z,51.70
2022-12-18T09:55:42.530Z,49.60
2022-12-18T09:56:42.367Z,52.50
2022-12-18T09:57:42.384Z,48.10
2022-12-18T09:58:42.770Z,47.90
2022-12-18T09:59:43.205Z,47.60
2022-12-18T10:00:42.279Z,54.30
2022-12-18T10:01:44.557Z,53.20
2022-12-18T10:02:43.381Z,50.60
2022-12-18T10:03:42.346Z,51.10
2022-12-18T10:04:42.303Z,52.30
2022-12-18T10:05:42.288Z,51.40
2022-12-18T10:06:42.213Z,49.90
2022-12-18T10:07:42.243Z,49.30
2022-12-18T10:08:42.776Z,48.20
2022-12-18T10:09:42.216Z,48.50
2022-12-18T10:10:42.178Z,49.30
2022-12-18T10:11:42.102Z,49.60
2022-12-18T10:12:42.149Z,46.40
2022-12-18T10:13:42.220Z,45.20
2022-12-18T10:14:42.155Z,46.20
2022-12-18T10:15:43.205Z,47.70
2022-12-18T10:16:42.153Z,50.10
2022-12-18T10:17:42.131Z,43.60
2022-12-18T10:18:42.436Z,43.10
2022-12-18T10:19:42.008Z,45.20
2022-12-18T10:20:51.192Z,43.10
2022-12-18T10:21:42.082Z,49.20
2022-12-18T10:22:42.083Z,44.90
2022-12-18T10:23:46.577Z,42.80
2022-12-18T10:24:43.996Z,46.40
2022-12-18T10:27:35.151Z,45.50
2022-12-18T10:27:36.628Z,48.80
2022-12-18T10:28:36.779Z,44.30
2022-12-18T10:29:36.715Z,44.20
2022-12-18T10:30:36.680Z,44.80
2022-12-18T10:31:36.719Z,46.30
2022-12-18T10:32:36.771Z,40.90
2022-12-18T10:33:36.761Z,43.20
2022-12-18T10:34:36.586Z,43.40
2022-12-18T10:35:36.652Z,41.50
2022-12-18T10:36:36.700Z,43.40
2022-12-18T10:37:36.599Z,40.30
2022-12-18T10:38:36.670Z,39.20
2022-12-18T10:39:36.602Z,42.80
2022-12-18T10:40:36.737Z,37.80
2022-12-18T10:41:36.577Z,42.00
2022-12-18T10:42:36.523Z,38.50
2022-12-18T10:43:36.534Z,37.50
2022-12-18T10:44:36.617Z,36.70
2022-12-18T10:45:36.553Z,39.50
2022-12-18T10:46:36.526Z,40.80
2022-12-18T10:47:36.525Z,38.20
2022-12-18T10:48:36.649Z,36.70
2022-12-18T10:49:36.566Z,38.10
2022-12-18T10:51:09.146Z,37.80
2022-12-18T10:51:38.516Z,41.10
2022-12-18T10:52:39.612Z,37.80
2022-12-18T10:53:37.441Z,39.60
2022-12-18T10:54:36.356Z,43.50
2022-12-18T10:55:36.317Z,40.60
2022-12-18T10:56:36.338Z,38.40
2022-12-18T10:57:36.320Z,48.80
2022-12-18T10:58:36.303Z,40.50
2022-12-18T10:59:36.348Z,38.20
2022-12-18T11:00:36.273Z,38.90
2022-12-18T11:01:36.584Z,38.00
2022-12-18T11:02:36.450Z,35.00
2022-12-18T11:03:36.335Z,33.70
2022-12-18T11:04:36.259Z,35.30
2022-12-18T11:05:36.262Z,33.20
2022-12-18T11:06:36.226Z,36.90
2022-12-18T11:07:36.385Z,35.70
2022-12-18T11:08:36.224Z,35.10
2022-12-18T11:09:36.180Z,34.60
2022-12-18T11:10:36.215Z,38.60
2022-12-18T11:11:36.154Z,36.20
2022-12-18T11:12:36.173Z,38.00
2022-12-18T11:13:36.193Z,36.00
2022-12-18T11:14:36.162Z,36.50
2022-12-18T11:15:36.154Z,35.60
2022-12-18T11:16:36.149Z,36.60
2022-12-18T11:17:36.193Z,39.00
2022-12-18T11:18:36.155Z,36.10
2022-12-18T11:19:36.070Z,36.40
2022-12-18T11:20:36.056Z,40.70
2022-12-18T11:21:36.083Z,41.90
2022-12-18T11:22:36.065Z,36.40
2022-12-18T11:23:36.095Z,38.80
2022-12-18T11:24:36.035Z,40.80
2022-12-18T11:25:36.539Z,38.60
2022-12-18T11:26:35.989Z,40.80
2022-12-18T11:27:35.989Z,41.10
2022-12-18T11:28:36.238Z,37.20
2022-12-18T11:29:36.016Z,37.70
2022-12-18T11:30:35.917Z,37.40
2022-12-18T11:31:36.284Z,40.10
2022-12-18T11:32:35.917Z,40.70
2022-12-18T11:33:35.993Z,38.50
2022-12-18T11:34:36.035Z,39.30
2022-12-18T11:35:36.079Z,38.90
2022-12-18T11:36:35.894Z,40.20
2022-12-18T11:37:35.919Z,38.40
2022-12-18T11:38:35.899Z,39.60
2022-12-18T11:39:35.934Z,38.50
2022-12-18T11:40:40.867Z,37.70
2022-12-18T11:41:38.523Z,37.00
2022-12-18T11:42:36.155Z,37.20
2022-12-18T11:43:35.853Z,33.20
2022-12-18T11:44:36.019Z,36.30
2022-12-18T11:45:35.803Z,36.70
2022-12-18T11:46:35.844Z,37.10
2022-12-18T11:47:35.759Z,34.40
2022-12-18T11:48:36.524Z,33.80
2022-12-18T11:49:36.958Z,37.10
2022-12-18T11:50:35.712Z,38.20
2022-12-18T11:51:35.731Z,36.50
2022-12-18T11:52:35.792Z,34.90
2022-12-18T11:53:35.719Z,35.80
2022-12-18T11:54:35.664Z,36.30
2022-12-18T11:55:35.715Z,38.30
2022-12-18T11:56:35.779Z,37.40
2022-12-18T11:57:36.615Z,36.50
2022-12-18T11:58:35.679Z,38.20
2022-12-18T11:59:35.665Z,37.50
2022-12-18T12:00:35.693Z,37.20
2022-12-18T12:01:41.948Z,41.00
2022-12-18T12:02:37.855Z,40.10
2022-12-18T12:03:36.645Z,36.90
2022-12-18T12:04:35.945Z,36.00
2022-12-18T12:05:35.640Z,39.50
2022-12-18T12:06:35.619Z,37.80
2022-12-18T12:07:35.609Z,39.60
2022-12-18T12:08:35.644Z,38.80
2022-12-18T12:09:37.096Z,40.10
2022-12-18T12:10:35.544Z,38.20
2022-12-18T12:11:35.537Z,38.60
2022-12-18T12:12:35.519Z,39.60
2022-12-18T12:13:35.595Z,38.10
2022-12-18T12:14:35.564Z,36.30
2022-12-18T12:15:36.184Z,37.10
2022-12-18T12:16:36.594Z,39.80
2022-12-18T12:17:36.509Z,39.40
2022-12-18T12:18:35.608Z,37.20
2022-12-18T12:19:35.421Z,37.60
2022-12-18T12:20:36.204Z,35.50
2022-12-18T12:21:37.183Z,35.50
2022-12-18T12:22:36.545Z,32.50
2022-12-18T12:23:35.400Z,36.50
2022-12-18T12:24:35.360Z,33.60
2022-12-18T12:26:07.855Z,36.40
2022-12-18T12:26:35.329Z,31.40
2022-12-18T12:27:35.977Z,32.30
2022-12-18T12:28:36.177Z,32.20
2022-12-18T12:29:35.369Z,34.90
2022-12-18T12:30:36.273Z,32.70
2022-12-18T12:31:35.532Z,36.20
2022-12-18T12:32:35.258Z,29.60
2022-12-18T12:33:37.380Z,33.10
2022-12-18T12:34:35.273Z,33.10
2022-12-18T12:35:35.265Z,32.00
2022-12-18T12:36:35.242Z,29.20
2022-12-18T12:37:41.284Z,34.20
2022-12-18T12:38:36.426Z,30.20
2022-12-18T12:39:35.266Z,31.30
2022-12-18T12:40:53.457Z,30.80
2022-12-18T12:41:37.203Z,30.90
2022-12-18T12:42:35.195Z,31.00
2022-12-18T12:43:35.241Z,29.80
2022-12-18T12:44:35.200Z,30.00
2022-12-18T12:45:35.258Z,29.60
2022-12-18T12:46:35.130Z,29.00
2022-12-18T12:47:35.154Z,32.50
2022-12-18T12:48:35.194Z,32.30
2022-12-18T12:49:39.021Z,30.50
2022-12-18T12:50:37.182Z,35.50
2022-12-18T12:51:35.102Z,35.00